sensor_id;sensor_type;location;lat;lon;timestamp;temperature;humidity
3262;DHT22;1643;47.746;9.000;2023-08-08T00:00:44;13.90;99.90
3262;DHT22;1643;47.746;9.000;2023-08-08T00:03:09;13.80;99.90
3262;DHT22;1643;47.746;9.000;2023-08-08T00:05:35;13.80;99.90
3262;DHT22;1643;47.746;9.000;2023-08-08T00:08:01;13.70;99.90
3262;DHT22;1643;47.746;9.000;2023-08-08T00:10:26;13.80;99.90
3262;DHT22;1643;47.746;9.000;2023-08-08T00:12:52;13.80;99.90
3262;DHT22;1643;47.746;9.000;2023-08-08T00:15:17;13.80;99.90
3262;DHT22;1643;47.746;9.000;2023-08-08T00:17:43;13.80;99.90
3262;DHT22;1643;47.746;9.000;2023-08-08T00:20:09;13.80;99.90
3262;DHT22;1643;47.746;9.000;2023-08-08T00:22:35;13.80;99.90
3262;DHT22;1643;47.746;9.000;2023-08-08T00:25:01;13.80;99.90
3262;DHT22;1643;47.746;9.000;2023-08-08T00:27:26;13.80;99.90
3262;DHT22;1643;47.746;9.000;2023-08-08T00:29:52;13.80;99.90
3262;DHT22;1643;47.746;9.000;2023-08-08T00:32:19;13.70;99.90
3262;DHT22;1643;47.746;9.000;2023-08-08T00:34:44;13.70;99.90
3262;DHT22;1643;47.746;9.000;2023-08-08T00:37:10;13.70;99.90
3262;DHT22;1643;47.746;9.000;2023-08-08T00:39:36;13.70;99.90
3262;DHT22;1643;47.746;9.000;2023-08-08T00:42:02;13.70;99.90
3262;DHT22;1643;47.746;9.000;2023-08-08T00:44:28;13.70;99.90
3262;DHT22;1643;47.746;9.000;2023-08-08T00:46:54;13.70;99.90
3262;DHT22;1643;47.746;9.000;2023-08-08T00:49:20;13.70;99.90
3262;DHT22;1643;47.746;9.000;2023-08-08T00:51:47;13.70;99.90
3262;DHT22;1643;47.746;9.000;2023-08-08T00:54:13;13.70;99.90
3262;DHT22;1643;47.746;9.000;2023-08-08T00:56:39;13.70;99.90
3262;DHT22;1643;47.746;9.000;2023-08-08T00:59:05;13.70;99.90
3262;DHT22;1643;47.746;9.000;2023-08-08T01:01:33;13.70;99.90
3262;DHT22;1643;47.746;9.000;2023-08-08T01:03:58;13.70;99.90
3262;DHT22;1643;47.746;9.000;2023-08-08T01:09:08;13.70;99.90
3262;DHT22;1643;47.746;9.000;2023-08-08T01:11:36;13.60;99.90
3262;DHT22;1643;47.746;9.000;2023-08-08T01:14:03;13.50;99.90
3262;DHT22;1643;47.746;9.000;2023-08-08T01:16:31;13.50;99.90
3262;DHT22;1643;47.746;9.000;2023-08-08T01:18:58;13.50;99.90
3262;DHT22;1643;47.746;9.000;2023-08-08T01:21:26;13.50;99.90
3262;DHT22;1643;47.746;9.000;2023-08-08T01:23:56;13.50;99.90
3262;DHT22;1643;47.746;9.000;2023-08-08T01:26:22;13.50;99.90
3262;DHT22;1643;47.746;9.000;2023-08-08T01:28:47;13.50;99.90
3262;DHT22;1643;47.746;9.000;2023-08-08T01:31:13;13.40;99.90
3262;DHT22;1643;47.746;9.000;2023-08-08T01:33:39;13.40;99.90
3262;DHT22;1643;47.746;9.000;2023-08-08T01:36:13;13.40;99.90
3262;DHT22;1643;47.746;9.000;2023-08-08T01:38:44;13.30;99.90
3262;DHT22;1643;47.746;9.000;2023-08-08T01:41:13;13.30;99.90
3262;DHT22;1643;47.746;9.000;2023-08-08T01:43:40;13.30;99.90
3262;DHT22;1643;47.746;9.000;2023-08-08T01:46:07;13.30;99.90
3262;DHT22;1643;47.746;9.000;2023-08-08T01:48:33;13.20;99.90
3262;DHT22;1643;47.746;9.000;2023-08-08T01:50:59;13.20;99.90
3262;DHT22;1643;47.746;9.000;2023-08-08T01:53:24;13.30;99.90
3262;DHT22;1643;47.746;9.000;2023-08-08T01:55:50;13.20;99.90
3262;DHT22;1643;47.746;9.000;2023-08-08T01:58:17;13.10;99.90
3262;DHT22;1643;47.746;9.000;2023-08-08T02:00:43;13.10;99.90
3262;DHT22;1643;47.746;9.000;2023-08-08T02:03:10;13.10;99.90
3262;DHT22;1643;47.746;9.000;2023-08-08T02:05:36;13.10;99.90
3262;DHT22;1643;47.746;9.000;2023-08-08T02:08:02;13.10;99.90
3262;DHT22;1643;47.746;9.000;2023-08-08T02:10:28;13.10;99.90
3262;DHT22;1643;47.746;9.000;2023-08-08T02:12:54;13.00;99.90
3262;DHT22;1643;47.746;9.000;2023-08-08T02:15:20;12.90;99.90
3262;DHT22;1643;47.746;9.000;2023-08-08T02:17:46;12.90;99.90
3262;DHT22;1643;47.746;9.000;2023-08-08T02:20:12;12.90;99.90
3262;DHT22;1643;47.746;9.000;2023-08-08T02:22:38;12.90;99.90
3262;DHT22;1643;47.746;9.000;2023-08-08T02:25:04;12.90;99.90
3262;DHT22;1643;47.746;9.000;2023-08-08T02:27:30;12.80;99.90
3262;DHT22;1643;47.746;9.000;2023-08-08T02:29:55;12.70;99.90
3262;DHT22;1643;47.746;9.000;2023-08-08T02:32:23;12.70;99.90
3262;DHT22;1643;47.746;9.000;2023-08-08T02:34:48;12.80;99.90
3262;DHT22;1643;47.746;9.000;2023-08-08T02:37:14;12.80;99.90
3262;DHT22;1643;47.746;9.000;2023-08-08T02:39:44;12.80;99.90
3262;DHT22;1643;47.746;9.000;2023-08-08T02:42:09;12.80;99.90
3262;DHT22;1643;47.746;9.000;2023-08-08T02:44:35;12.80;99.90
3262;DHT22;1643;47.746;9.000;2023-08-08T02:47:01;12.80;99.90
3262;DHT22;1643;47.746;9.000;2023-08-08T02:49:27;12.70;99.90
3262;DHT22;1643;47.746;9.000;2023-08-08T02:51:52;12.70;99.90
3262;DHT22;1643;47.746;9.000;2023-08-08T02:54:18;12.70;99.90
3262;DHT22;1643;47.746;9.000;2023-08-08T02:56:43;12.70;99.90
3262;DHT22;1643;47.746;9.000;2023-08-08T02:59:09;12.70;99.90
3262;DHT22;1643;47.746;9.000;2023-08-08T03:01:36;12.70;99.90
3262;DHT22;1643;47.746;9.000;2023-08-08T03:04:05;12.70;99.90
3262;DHT22;1643;47.746;9.000;2023-08-08T03:06:31;12.70;99.90
3262;DHT22;1643;47.746;9.000;2023-08-08T03:08:57;12.60;99.90
3262;DHT22;1643;47.746;9.000;2023-08-08T03:11:22;12.60;99.90
3262;DHT22;1643;47.746;9.000;2023-08-08T03:13:48;12.60;99.90
3262;DHT22;1643;47.746;9.000;2023-08-08T03:16:14;12.50;99.90
3262;DHT22;1643;47.746;9.000;2023-08-08T03:18:40;12.50;99.90
3262;DHT22;1643;47.746;9.000;2023-08-08T03:21:05;12.50;99.90
3262;DHT22;1643;47.746;9.000;2023-08-08T03:23:31;12.50;99.90
3262;DHT22;1643;47.746;9.000;2023-08-08T03:25:57;12.50;99.90
3262;DHT22;1643;47.746;9.000;2023-08-08T03:28:22;12.50;99.90
3262;DHT22;1643;47.746;9.000;2023-08-08T03:30:48;12.40;99.90
3262;DHT22;1643;47.746;9.000;2023-08-08T03:33:14;12.40;99.90
3262;DHT22;1643;47.746;9.000;2023-08-08T03:35:39;12.50;99.90
3262;DHT22;1643;47.746;9.000;2023-08-08T03:38:05;12.50;99.90
3262;DHT22;1643;47.746;9.000;2023-08-08T03:40:31;12.40;99.90
3262;DHT22;1643;47.746;9.000;2023-08-08T03:42:57;12.40;99.90
3262;DHT22;1643;47.746;9.000;2023-08-08T03:45:22;12.40;99.90
3262;DHT22;1643;47.746;9.000;2023-08-08T03:47:48;12.40;99.90
3262;DHT22;1643;47.746;9.000;2023-08-08T03:50:13;12.40;99.90
3262;DHT22;1643;47.746;9.000;2023-08-08T03:52:39;12.40;99.90
3262;DHT22;1643;47.746;9.000;2023-08-08T03:55:05;12.40;99.90
3262;DHT22;1643;47.746;9.000;2023-08-08T03:57:31;12.30;99.90
3262;DHT22;1643;47.746;9.000;2023-08-08T03:59:56;12.30;99.90
3262;DHT22;1643;47.746;9.000;2023-08-08T04:02:22;12.30;99.90
3262;DHT22;1643;47.746;9.000;2023-08-08T04:04:48;12.30;99.90
3262;DHT22;1643;47.746;9.000;2023-08-08T04:07:14;12.30;99.90
3262;DHT22;1643;47.746;9.000;2023-08-08T04:09:39;12.30;99.90
3262;DHT22;1643;47.746;9.000;2023-08-08T04:12:05;12.30;99.90
3262;DHT22;1643;47.746;9.000;2023-08-08T04:14:31;12.30;99.90
3262;DHT22;1643;47.746;9.000;2023-08-08T04:16:56;12.30;99.90
3262;DHT22;1643;47.746;9.000;2023-08-08T04:19:22;12.30;99.90
3262;DHT22;1643;47.746;9.000;2023-08-08T04:21:48;12.30;99.90
3262;DHT22;1643;47.746;9.000;2023-08-08T04:24:14;12.20;99.90
3262;DHT22;1643;47.746;9.000;2023-08-08T04:26:40;12.20;99.90
3262;DHT22;1643;47.746;9.000;2023-08-08T04:29:06;12.20;99.90
3262;DHT22;1643;47.746;9.000;2023-08-08T04:31:31;12.20;99.90
3262;DHT22;1643;47.746;9.000;2023-08-08T04:33:57;12.20;99.90
3262;DHT22;1643;47.746;9.000;2023-08-08T04:36:29;12.10;99.90
3262;DHT22;1643;47.746;9.000;2023-08-08T04:38:54;12.20;99.90
3262;DHT22;1643;47.746;9.000;2023-08-08T04:41:20;12.20;99.90
3262;DHT22;1643;47.746;9.000;2023-08-08T04:43:46;12.20;99.90
3262;DHT22;1643;47.746;9.000;2023-08-08T04:46:12;12.20;99.90
3262;DHT22;1643;47.746;9.000;2023-08-08T04:48:38;12.30;99.90
3262;DHT22;1643;47.746;9.000;2023-08-08T04:51:07;12.30;99.90
3262;DHT22;1643;47.746;9.000;2023-08-08T04:53:33;12.30;99.90
3262;DHT22;1643;47.746;9.000;2023-08-08T04:55:59;12.30;99.90
3262;DHT22;1643;47.746;9.000;2023-08-08T04:58:24;12.30;99.90
3262;DHT22;1643;47.746;9.000;2023-08-08T05:00:50;12.30;99.90
3262;DHT22;1643;47.746;9.000;2023-08-08T05:03:20;12.30;99.90
3262;DHT22;1643;47.746;9.000;2023-08-08T05:05:46;12.40;99.90
3262;DHT22;1643;47.746;9.000;2023-08-08T05:08:14;12.40;99.90
3262;DHT22;1643;47.746;9.000;2023-08-08T05:10:40;12.40;99.90
3262;DHT22;1643;47.746;9.000;2023-08-08T05:13:05;12.50;99.90
3262;DHT22;1643;47.746;9.000;2023-08-08T05:15:31;12.50;99.90
3262;DHT22;1643;47.746;9.000;2023-08-08T05:17:57;12.50;99.90
3262;DHT22;1643;47.746;9.000;2023-08-08T05:20:22;12.50;99.90
3262;DHT22;1643;47.746;9.000;2023-08-08T05:22:48;12.50;99.90
3262;DHT22;1643;47.746;9.000;2023-08-08T05:25:14;12.50;99.90
3262;DHT22;1643;47.746;9.000;2023-08-08T05:27:39;12.50;99.90
3262;DHT22;1643;47.746;9.000;2023-08-08T05:30:06;12.50;99.90
3262;DHT22;1643;47.746;9.000;2023-08-08T05:32:31;12.50;99.90
3262;DHT22;1643;47.746;9.000;2023-08-08T05:34:57;12.60;99.90
3262;DHT22;1643;47.746;9.000;2023-08-08T05:37:26;12.60;99.90
3262;DHT22;1643;47.746;9.000;2023-08-08T05:39:53;12.60;99.90
3262;DHT22;1643;47.746;9.000;2023-08-08T05:42:19;12.70;99.90
3262;DHT22;1643;47.746;9.000;2023-08-08T05:44:44;12.70;99.90
3262;DHT22;1643;47.746;9.000;2023-08-08T05:47:10;12.70;99.90
3262;DHT22;1643;47.746;9.000;2023-08-08T05:49:37;12.80;99.90
3262;DHT22;1643;47.746;9.000;2023-08-08T05:52:03;12.80;99.90
3262;DHT22;1643;47.746;9.000;2023-08-08T05:54:29;12.80;99.90
3262;DHT22;1643;47.746;9.000;2023-08-08T05:56:55;12.90;99.90
3262;DHT22;1643;47.746;9.000;2023-08-08T05:59:20;12.90;99.90
3262;DHT22;1643;47.746;9.000;2023-08-08T06:01:46;13.00;99.90
3262;DHT22;1643;47.746;9.000;2023-08-08T06:04:12;13.10;99.90
3262;DHT22;1643;47.746;9.000;2023-08-08T06:06:39;13.20;99.90
3262;DHT22;1643;47.746;9.000;2023-08-08T06:09:05;13.30;99.90
3262;DHT22;1643;47.746;9.000;2023-08-08T06:11:30;13.40;99.90
3262;DHT22;1643;47.746;9.000;2023-08-08T06:13:56;13.40;99.90
3262;DHT22;1643;47.746;9.000;2023-08-08T06:16:22;13.50;99.90
3262;DHT22;1643;47.746;9.000;2023-08-08T06:18:48;13.60;99.90
3262;DHT22;1643;47.746;9.000;2023-08-08T06:21:14;13.70;99.90
3262;DHT22;1643;47.746;9.000;2023-08-08T06:23:39;13.70;99.90
3262;DHT22;1643;47.746;9.000;2023-08-08T06:26:05;13.80;99.90
3262;DHT22;1643;47.746;9.000;2023-08-08T06:28:31;13.90;99.90
3262;DHT22;1643;47.746;9.000;2023-08-08T06:30:58;14.00;99.90
3262;DHT22;1643;47.746;9.000;2023-08-08T06:33:23;14.10;99.90
3262;DHT22;1643;47.746;9.000;2023-08-08T06:35:49;14.20;99.90
3262;DHT22;1643;47.746;9.000;2023-08-08T06:38:15;14.20;99.90
3262;DHT22;1643;47.746;9.000;2023-08-08T06:40:41;14.30;99.90
3262;DHT22;1643;47.746;9.000;2023-08-08T06:43:07;14.30;99.90
3262;DHT22;1643;47.746;9.000;2023-08-08T06:45:32;14.30;99.90
3262;DHT22;1643;47.746;9.000;2023-08-08T06:47:58;14.40;99.90
3262;DHT22;1643;47.746;9.000;2023-08-08T06:50:24;14.40;99.90
3262;DHT22;1643;47.746;9.000;2023-08-08T06:52:50;14.50;99.90
3262;DHT22;1643;47.746;9.000;2023-08-08T06:55:16;14.50;99.90
3262;DHT22;1643;47.746;9.000;2023-08-08T06:57:41;14.50;99.90
3262;DHT22;1643;47.746;9.000;2023-08-08T07:00:07;14.60;99.90
3262;DHT22;1643;47.746;9.000;2023-08-08T07:02:34;14.70;99.90
3262;DHT22;1643;47.746;9.000;2023-08-08T07:05:00;14.70;99.90
3262;DHT22;1643;47.746;9.000;2023-08-08T07:07:25;14.70;99.90
3262;DHT22;1643;47.746;9.000;2023-08-08T07:09:51;14.70;99.90
3262;DHT22;1643;47.746;9.000;2023-08-08T07:12:17;14.70;99.90
3262;DHT22;1643;47.746;9.000;2023-08-08T07:14:42;14.70;99.90
3262;DHT22;1643;47.746;9.000;2023-08-08T07:17:08;14.80;99.90
3262;DHT22;1643;47.746;9.000;2023-08-08T07:19:35;14.90;99.90
3262;DHT22;1643;47.746;9.000;2023-08-08T07:22:01;15.00;99.90
3262;DHT22;1643;47.746;9.000;2023-08-08T07:24:27;15.10;99.90
3262;DHT22;1643;47.746;9.000;2023-08-08T07:26:55;15.10;99.90
3262;DHT22;1643;47.746;9.000;2023-08-08T07:29:21;15.20;99.90
3262;DHT22;1643;47.746;9.000;2023-08-08T07:31:46;15.30;99.90
3262;DHT22;1643;47.746;9.000;2023-08-08T07:34:12;15.40;99.90
3262;DHT22;1643;47.746;9.000;2023-08-08T07:36:38;15.50;99.90
3262;DHT22;1643;47.746;9.000;2023-08-08T07:39:03;15.50;99.90
3262;DHT22;1643;47.746;9.000;2023-08-08T07:41:30;15.60;99.90
3262;DHT22;1643;47.746;9.000;2023-08-08T07:43:55;15.70;99.90
3262;DHT22;1643;47.746;9.000;2023-08-08T07:46:22;15.80;99.90
3262;DHT22;1643;47.746;9.000;2023-08-08T07:48:48;15.90;99.90
3262;DHT22;1643;47.746;9.000;2023-08-08T07:51:13;15.90;99.90
3262;DHT22;1643;47.746;9.000;2023-08-08T07:53:39;16.00;99.90
3262;DHT22;1643;47.746;9.000;2023-08-08T07:56:04;16.00;99.90
3262;DHT22;1643;47.746;9.000;2023-08-08T07:58:32;16.10;99.90
3262;DHT22;1643;47.746;9.000;2023-08-08T08:00:58;16.20;99.90
3262;DHT22;1643;47.746;9.000;2023-08-08T08:03:25;16.20;99.90
3262;DHT22;1643;47.746;9.000;2023-08-08T08:05:51;16.30;99.90
3262;DHT22;1643;47.746;9.000;2023-08-08T08:08:16;16.40;99.90
3262;DHT22;1643;47.746;9.000;2023-08-08T08:10:42;16.50;99.90
3262;DHT22;1643;47.746;9.000;2023-08-08T08:13:08;16.60;99.90
3262;DHT22;1643;47.746;9.000;2023-08-08T08:15:33;16.70;99.90
3262;DHT22;1643;47.746;9.000;2023-08-08T08:17:59;16.80;99.90
3262;DHT22;1643;47.746;9.000;2023-08-08T08:20:25;16.90;99.90
3262;DHT22;1643;47.746;9.000;2023-08-08T08:22:50;16.90;99.90
3262;DHT22;1643;47.746;9.000;2023-08-08T08:25:16;16.90;99.90
3262;DHT22;1643;47.746;9.000;2023-08-08T08:27:42;16.90;99.90
3262;DHT22;1643;47.746;9.000;2023-08-08T08:30:08;16.90;99.90
3262;DHT22;1643;47.746;9.000;2023-08-08T08:32:36;17.00;99.90
3262;DHT22;1643;47.746;9.000;2023-08-08T08:35:02;17.00;99.90
3262;DHT22;1643;47.746;9.000;2023-08-08T08:37:29;16.90;99.90
3262;DHT22;1643;47.746;9.000;2023-08-08T08:39:55;16.80;99.90
3262;DHT22;1643;47.746;9.000;2023-08-08T08:42:21;16.80;99.90
3262;DHT22;1643;47.746;9.000;2023-08-08T08:44:47;16.90;99.90
3262;DHT22;1643;47.746;9.000;2023-08-08T08:47:15;16.90;99.90
3262;DHT22;1643;47.746;9.000;2023-08-08T08:49:44;17.00;99.90
3262;DHT22;1643;47.746;9.000;2023-08-08T08:52:11;17.20;99.90
3262;DHT22;1643;47.746;9.000;2023-08-08T08:54:38;17.20;99.90
3262;DHT22;1643;47.746;9.000;2023-08-08T08:57:04;17.20;99.90
3262;DHT22;1643;47.746;9.000;2023-08-08T08:59:30;17.20;99.90
3262;DHT22;1643;47.746;9.000;2023-08-08T09:01:56;17.20;99.90
3262;DHT22;1643;47.746;9.000;2023-08-08T09:04:22;17.30;99.90
3262;DHT22;1643;47.746;9.000;2023-08-08T09:06:49;17.30;99.90
3262;DHT22;1643;47.746;9.000;2023-08-08T09:09:15;17.30;99.90
3262;DHT22;1643;47.746;9.000;2023-08-08T09:11:51;17.30;99.90
3262;DHT22;1643;47.746;9.000;2023-08-08T09:14:25;17.40;99.90
3262;DHT22;1643;47.746;9.000;2023-08-08T09:16:52;17.30;99.90
3262;DHT22;1643;47.746;9.000;2023-08-08T09:19:22;17.30;99.90
3262;DHT22;1643;47.746;9.000;2023-08-08T09:21:49;17.40;99.90
3262;DHT22;1643;47.746;9.000;2023-08-08T09:24:15;17.50;99.90
3262;DHT22;1643;47.746;9.000;2023-08-08T09:26:42;17.60;99.90
3262;DHT22;1643;47.746;9.000;2023-08-08T09:29:08;17.70;99.90
3262;DHT22;1643;47.746;9.000;2023-08-08T09:31:35;17.60;99.90
3262;DHT22;1643;47.746;9.000;2023-08-08T09:34:03;17.70;99.90
3262;DHT22;1643;47.746;9.000;2023-08-08T09:36:28;17.70;99.90
3262;DHT22;1643;47.746;9.000;2023-08-08T09:38:55;17.80;99.90
3262;DHT22;1643;47.746;9.000;2023-08-08T09:41:22;17.90;99.90
3262;DHT22;1643;47.746;9.000;2023-08-08T09:43:49;17.90;99.90
3262;DHT22;1643;47.746;9.000;2023-08-08T09:46:15;18.00;99.90
3262;DHT22;1643;47.746;9.000;2023-08-08T09:48:41;18.10;99.90
3262;DHT22;1643;47.746;9.000;2023-08-08T09:51:08;18.10;99.90
3262;DHT22;1643;47.746;9.000;2023-08-08T09:53:34;18.20;99.90
3262;DHT22;1643;47.746;9.000;2023-08-08T09:56:02;18.30;99.90
3262;DHT22;1643;47.746;9.000;2023-08-08T09:58:29;18.40;99.90
3262;DHT22;1643;47.746;9.000;2023-08-08T10:00:54;18.50;99.90
3262;DHT22;1643;47.746;9.000;2023-08-08T10:03:20;18.60;99.90
3262;DHT22;1643;47.746;9.000;2023-08-08T10:05:46;18.80;99.90
3262;DHT22;1643;47.746;9.000;2023-08-08T10:08:14;18.90;99.90
3262;DHT22;1643;47.746;9.000;2023-08-08T10:10:42;18.90;99.90
3262;DHT22;1643;47.746;9.000;2023-08-08T10:13:10;19.00;99.90
3262;DHT22;1643;47.746;9.000;2023-08-08T10:15:39;18.90;99.90
3262;DHT22;1643;47.746;9.000;2023-08-08T10:18:06;19.00;99.90
3262;DHT22;1643;47.746;9.000;2023-08-08T10:20:32;19.00;99.90
3262;DHT22;1643;47.746;9.000;2023-08-08T10:23:02;19.00;99.90
3262;DHT22;1643;47.746;9.000;2023-08-08T10:25:30;19.00;99.90
3262;DHT22;1643;47.746;9.000;2023-08-08T10:28:05;19.00;99.90
3262;DHT22;1643;47.746;9.000;2023-08-08T10:31:01;19.20;99.90
3262;DHT22;1643;47.746;9.000;2023-08-08T10:33:40;19.20;99.90
3262;DHT22;1643;47.746;9.000;2023-08-08T10:36:07;19.20;99.90
3262;DHT22;1643;47.746;9.000;2023-08-08T10:38:40;19.30;99.90
3262;DHT22;1643;47.746;9.000;2023-08-08T10:41:15;19.40;99.90
3262;DHT22;1643;47.746;9.000;2023-08-08T10:43:54;19.40;99.90
3262;DHT22;1643;47.746;9.000;2023-08-08T10:46:25;19.40;99.90
3262;DHT22;1643;47.746;9.000;2023-08-08T10:48:53;19.40;99.90
3262;DHT22;1643;47.746;9.000;2023-08-08T10:51:19;19.50;99.90
3262;DHT22;1643;47.746;9.000;2023-08-08T10:53:45;19.50;99.90
3262;DHT22;1643;47.746;9.000;2023-08-08T10:56:13;19.70;99.90
3262;DHT22;1643;47.746;9.000;2023-08-08T10:58:41;19.70;99.90
3262;DHT22;1643;47.746;9.000;2023-08-08T11:01:07;19.70;99.90
3262;DHT22;1643;47.746;9.000;2023-08-08T11:03:39;19.70;99.90
3262;DHT22;1643;47.746;9.000;2023-08-08T11:06:06;19.90;99.90
3262;DHT22;1643;47.746;9.000;2023-08-08T11:08:33;20.00;99.90
3262;DHT22;1643;47.746;9.000;2023-08-08T11:10:59;20.10;99.90
3262;DHT22;1643;47.746;9.000;2023-08-08T11:13:25;20.10;99.90
3262;DHT22;1643;47.746;9.000;2023-08-08T11:15:51;20.10;99.80
3262;DHT22;1643;47.746;9.000;2023-08-08T11:18:17;20.10;99.70
3262;DHT22;1643;47.746;9.000;2023-08-08T11:20:44;20.30;99.90
3262;DHT22;1643;47.746;9.000;2023-08-08T11:23:10;20.30;99.70
3262;DHT22;1643;47.746;9.000;2023-08-08T11:25:40;20.30;99.90
3262;DHT22;1643;47.746;9.000;2023-08-08T11:28:07;20.30;99.90
3262;DHT22;1643;47.746;9.000;2023-08-08T11:30:38;20.50;99.90
3262;DHT22;1643;47.746;9.000;2023-08-08T11:33:04;20.70;99.00
3262;DHT22;1643;47.746;9.000;2023-08-08T11:35:30;20.50;98.60
3262;DHT22;1643;47.746;9.000;2023-08-08T11:37:57;20.60;98.10
3262;DHT22;1643;47.746;9.000;2023-08-08T11:40:26;20.60;98.60
3262;DHT22;1643;47.746;9.000;2023-08-08T11:42:53;20.70;98.70
3262;DHT22;1643;47.746;9.000;2023-08-08T11:45:19;20.70;98.70
3262;DHT22;1643;47.746;9.000;2023-08-08T11:47:49;20.70;98.30
3262;DHT22;1643;47.746;9.000;2023-08-08T11:50:15;20.80;98.60
3262;DHT22;1643;47.746;9.000;2023-08-08T11:52:42;20.90;98.70
3262;DHT22;1643;47.746;9.000;2023-08-08T11:55:09;21.10;98.50
3262;DHT22;1643;47.746;9.000;2023-08-08T11:57:36;21.10;98.50
3262;DHT22;1643;47.746;9.000;2023-08-08T12:00:10;21.10;98.30
3262;DHT22;1643;47.746;9.000;2023-08-08T12:02:42;21.20;98.50
3262;DHT22;1643;47.746;9.000;2023-08-08T12:05:13;21.30;97.80
3262;DHT22;1643;47.746;9.000;2023-08-08T12:07:40;21.30;97.10
3262;DHT22;1643;47.746;9.000;2023-08-08T12:10:18;21.40;97.30
3262;DHT22;1643;47.746;9.000;2023-08-08T12:12:45;21.30;97.10
3262;DHT22;1643;47.746;9.000;2023-08-08T12:15:11;21.30;96.80
3262;DHT22;1643;47.746;9.000;2023-08-08T12:17:37;21.40;96.70
3262;DHT22;1643;47.746;9.000;2023-08-08T12:20:07;21.40;97.30
3262;DHT22;1643;47.746;9.000;2023-08-08T12:22:35;21.60;97.30
3262;DHT22;1643;47.746;9.000;2023-08-08T12:25:01;21.60;96.70
3262;DHT22;1643;47.746;9.000;2023-08-08T12:27:27;21.60;96.50
3262;DHT22;1643;47.746;9.000;2023-08-08T12:29:52;21.70;96.60
3262;DHT22;1643;47.746;9.000;2023-08-08T12:32:26;21.70;96.30
3262;DHT22;1643;47.746;9.000;2023-08-08T12:34:53;21.70;96.60
3262;DHT22;1643;47.746;9.000;2023-08-08T12:37:19;21.70;96.40
3262;DHT22;1643;47.746;9.000;2023-08-08T12:39:44;21.70;96.20
3262;DHT22;1643;47.746;9.000;2023-08-08T12:42:10;21.70;96.30
3262;DHT22;1643;47.746;9.000;2023-08-08T12:44:36;21.90;96.10
3262;DHT22;1643;47.746;9.000;2023-08-08T12:47:01;22.00;95.90
3262;DHT22;1643;47.746;9.000;2023-08-08T12:49:27;22.00;96.30
3262;DHT22;1643;47.746;9.000;2023-08-08T12:51:53;21.90;96.20
3262;DHT22;1643;47.746;9.000;2023-08-08T12:54:21;21.90;95.90
3262;DHT22;1643;47.746;9.000;2023-08-08T12:56:47;21.90;95.70
3262;DHT22;1643;47.746;9.000;2023-08-08T12:59:13;21.80;95.50
3262;DHT22;1643;47.746;9.000;2023-08-08T13:01:38;21.90;95.30
3262;DHT22;1643;47.746;9.000;2023-08-08T13:04:04;21.80;95.50
3262;DHT22;1643;47.746;9.000;2023-08-08T13:06:30;21.90;95.30
3262;DHT22;1643;47.746;9.000;2023-08-08T13:08:56;21.80;94.80
3262;DHT22;1643;47.746;9.000;2023-08-08T13:11:22;21.80;94.80
3262;DHT22;1643;47.746;9.000;2023-08-08T13:13:48;21.70;94.90
3262;DHT22;1643;47.746;9.000;2023-08-08T13:16:13;21.70;94.20
3262;DHT22;1643;47.746;9.000;2023-08-08T13:18:39;21.60;94.60
3262;DHT22;1643;47.746;9.000;2023-08-08T13:21:05;21.50;94.80
3262;DHT22;1643;47.746;9.000;2023-08-08T13:23:32;21.60;95.10
3262;DHT22;1643;47.746;9.000;2023-08-08T13:25:57;21.40;95.10
3262;DHT22;1643;47.746;9.000;2023-08-08T13:28:23;21.40;95.20
3262;DHT22;1643;47.746;9.000;2023-08-08T13:30:49;21.60;95.40
3262;DHT22;1643;47.746;9.000;2023-08-08T13:33:14;21.70;95.40
3262;DHT22;1643;47.746;9.000;2023-08-08T13:35:40;21.80;94.80
3262;DHT22;1643;47.746;9.000;2023-08-08T13:38:06;21.80;94.40
3262;DHT22;1643;47.746;9.000;2023-08-08T13:40:33;21.80;94.90
3262;DHT22;1643;47.746;9.000;2023-08-08T13:42:59;21.90;94.40
3262;DHT22;1643;47.746;9.000;2023-08-08T13:45:24;22.00;94.50
3262;DHT22;1643;47.746;9.000;2023-08-08T13:47:50;22.10;93.40
3262;DHT22;1643;47.746;9.000;2023-08-08T13:50:16;22.10;94.00
3262;DHT22;1643;47.746;9.000;2023-08-08T13:52:41;22.10;95.00
3262;DHT22;1643;47.746;9.000;2023-08-08T13:55:10;22.30;94.30
3262;DHT22;1643;47.746;9.000;2023-08-08T13:57:35;22.50;93.90
3262;DHT22;1643;47.746;9.000;2023-08-08T14:00:02;22.70;94.30
3262;DHT22;1643;47.746;9.000;2023-08-08T14:02:28;22.90;93.70
3262;DHT22;1643;47.746;9.000;2023-08-08T14:04:55;22.90;93.40
3262;DHT22;1643;47.746;9.000;2023-08-08T14:07:21;22.80;92.50
3262;DHT22;1643;47.746;9.000;2023-08-08T14:09:47;22.90;92.60
3262;DHT22;1643;47.746;9.000;2023-08-08T14:12:12;22.80;92.70
3262;DHT22;1643;47.746;9.000;2023-08-08T14:14:38;22.70;92.50
3262;DHT22;1643;47.746;9.000;2023-08-08T14:17:04;22.80;92.40
3262;DHT22;1643;47.746;9.000;2023-08-08T14:19:29;22.90;92.60
3262;DHT22;1643;47.746;9.000;2023-08-08T14:21:55;22.90;92.90
3262;DHT22;1643;47.746;9.000;2023-08-08T14:24:21;23.00;92.30
3262;DHT22;1643;47.746;9.000;2023-08-08T14:26:46;23.10;91.50
3262;DHT22;1643;47.746;9.000;2023-08-08T14:29:12;22.70;91.90
3262;DHT22;1643;47.746;9.000;2023-08-08T14:31:38;22.80;92.00
3262;DHT22;1643;47.746;9.000;2023-08-08T14:34:04;22.90;92.20
3262;DHT22;1643;47.746;9.000;2023-08-08T14:36:29;22.80;92.80
3262;DHT22;1643;47.746;9.000;2023-08-08T14:38:55;22.90;92.70
3262;DHT22;1643;47.746;9.000;2023-08-08T14:41:21;22.90;92.70
3262;DHT22;1643;47.746;9.000;2023-08-08T14:43:47;22.90;92.20
3262;DHT22;1643;47.746;9.000;2023-08-08T14:46:13;23.00;92.80
3262;DHT22;1643;47.746;9.000;2023-08-08T14:48:38;23.20;92.80
3262;DHT22;1643;47.746;9.000;2023-08-08T14:51:04;23.20;92.00
3262;DHT22;1643;47.746;9.000;2023-08-08T14:53:29;23.20;91.60
3262;DHT22;1643;47.746;9.000;2023-08-08T14:55:55;23.20;91.30
3262;DHT22;1643;47.746;9.000;2023-08-08T14:58:21;23.20;91.30
3262;DHT22;1643;47.746;9.000;2023-08-08T15:00:46;23.10;91.00
3262;DHT22;1643;47.746;9.000;2023-08-08T15:03:13;23.00;91.50
3262;DHT22;1643;47.746;9.000;2023-08-08T15:05:40;22.90;91.00
3262;DHT22;1643;47.746;9.000;2023-08-08T15:08:06;23.00;91.70
3262;DHT22;1643;47.746;9.000;2023-08-08T15:10:32;23.10;91.80
3262;DHT22;1643;47.746;9.000;2023-08-08T15:12:58;23.10;91.80
3262;DHT22;1643;47.746;9.000;2023-08-08T15:15:24;23.10;91.80
3262;DHT22;1643;47.746;9.000;2023-08-08T15:17:51;23.10;92.00
3262;DHT22;1643;47.746;9.000;2023-08-08T15:20:17;23.20;92.20
3262;DHT22;1643;47.746;9.000;2023-08-08T15:22:43;23.20;92.10
3262;DHT22;1643;47.746;9.000;2023-08-08T15:25:08;23.30;92.00
3262;DHT22;1643;47.746;9.000;2023-08-08T15:27:34;23.30;91.90
3262;DHT22;1643;47.746;9.000;2023-08-08T15:30:00;23.40;91.10
3262;DHT22;1643;47.746;9.000;2023-08-08T15:32:26;23.30;91.00
3262;DHT22;1643;47.746;9.000;2023-08-08T15:34:51;23.30;90.40
3262;DHT22;1643;47.746;9.000;2023-08-08T15:37:17;23.30;90.10
3262;DHT22;1643;47.746;9.000;2023-08-08T15:39:42;23.20;90.20
3262;DHT22;1643;47.746;9.000;2023-08-08T15:42:08;23.20;89.40
3262;DHT22;1643;47.746;9.000;2023-08-08T15:44:34;23.00;89.80
3262;DHT22;1643;47.746;9.000;2023-08-08T15:46:59;23.00;90.00
3262;DHT22;1643;47.746;9.000;2023-08-08T15:49:25;23.10;89.20
3262;DHT22;1643;47.746;9.000;2023-08-08T15:51:50;23.10;89.10
3262;DHT22;1643;47.746;9.000;2023-08-08T15:54:22;23.10;89.90
3262;DHT22;1643;47.746;9.000;2023-08-08T15:56:47;23.10;89.20
3262;DHT22;1643;47.746;9.000;2023-08-08T15:59:13;23.00;88.60